עמוד ראשי
METAR-TAF:

METAR-TAF

שדות תעופה :

Palenque, מקסיקו

קו רוחב: 17-32-06N, קו אורך: 92-00-54W, גובה: 60מטר

תצפית מזג אוויר נוכחית

הדו"ח נערך לפני 15דקות, בשעה 13:00 UTC
רוח 10קשר מכיוון מזרח
טמפרטורת 28 צלסיוס
לחות 79%
לחץ 1011 hPa
ראות: 4.8קילומטר
שמיים נקיים
אובך

METAR: MMPQ 291300Z 09010KT 3SM HZ SKC 28/24 A2984 RMK MSGTX MMMX

זמן: 08:15 (13:15 UTC)

תחזית

הדו"ח נערך לפני 8 שעות ו 26דקות, בשעה 04:49 UTC
תחזית בתוקף מ 29 ב 06 UTC עד 30 ב 06 UTC
רוח 5קשר מכיוון מזרח
ראות: 4.8קילומטר
שמיים נקיים
אובך
מ 29 ב 1800UTC
רוח 10קשר מכיוון מזרח/צפון-מזרח
ראות: 6.4קילומטר
שמיים נקיים
אובך
מ 30 ב 0200UTC
רוח קשר מכיוון צפון
ראות: 8.0קילומטר
שמיים נקיים
אובך,

TAF: MMPQ 290449Z 2906/3006 10005KT 3SM HZ SKC FM291800 06010KT 4SM HZ SKC FM300200 00000KT 5SM HZ SKC

תצפיות ותחזיות מזג אוויר לגבי יותר מ- 4,000 שדות תעופה ברחבי העולם. דוחות METAR ו- TAF.

התחנות הזמינות מסומנות בנקודות צהובות ואדומות על גבי המפה.

העבר את העכבר לנקודה הצבעונית על מנת לראות את שם התחנה.

לאחר מכן, לחץ כדי לראות את תוכן ואת תחזיות מזג האוויר.

כדי לשנות את המפה: לחץ על הכפתורים הירוקים עם הפלוס השחור כדי להתקרב; על הכפתור הירוק עם המקף כדי להתרחק; או בחיצים הירוקים למפות סמוכות.


METAR-TAF: